createdAt,value
2023-02-09T00:00:17.025Z,6.35
2023-02-09T00:02:43.889Z,5.88
2023-02-09T00:05:11.253Z,5.90
2023-02-09T00:07:37.769Z,6.18
2023-02-09T00:10:05.927Z,5.35
2023-02-09T00:12:51.320Z,5.43
2023-02-09T00:15:17.866Z,5.82
2023-02-09T00:17:44.343Z,5.68
2023-02-09T00:20:11.121Z,5.40
2023-02-09T00:22:37.774Z,6.43
2023-02-09T00:25:04.585Z,5.65
2023-02-09T00:27:32.287Z,5.68
2023-02-09T00:29:58.862Z,5.80
2023-02-09T00:32:25.412Z,5.53
2023-02-09T00:34:51.924Z,5.07
2023-02-09T00:37:18.422Z,6.45
2023-02-09T00:39:45.004Z,5.05
2023-02-09T00:42:11.596Z,4.95
2023-02-09T00:44:40.587Z,5.22
2023-02-09T00:47:08.720Z,5.32
2023-02-09T00:49:35.735Z,5.72
2023-02-09T00:52:02.775Z,4.93
2023-02-09T00:54:29.482Z,5.30
2023-02-09T00:56:56.063Z,5.30
2023-02-09T00:59:22.601Z,5.05
2023-02-09T01:01:49.096Z,4.90
2023-02-09T01:04:15.624Z,5.30
2023-02-09T01:06:42.191Z,5.53
2023-02-09T01:09:08.742Z,4.95
2023-02-09T01:11:35.272Z,5.30
2023-02-09T01:14:04.379Z,4.93
2023-02-09T01:16:31.761Z,5.05
2023-02-09T01:19:00.748Z,4.65
2023-02-09T01:21:27.698Z,5.18
2023-02-09T01:23:54.262Z,4.57
2023-02-09T01:26:21.132Z,5.20
2023-02-09T01:28:52.958Z,4.50
2023-02-09T01:31:28.646Z,4.50
2023-02-09T01:33:56.810Z,4.68
2023-02-09T01:36:24.862Z,4.60
2023-02-09T01:38:54.806Z,4.97
2023-02-09T01:41:21.585Z,4.80
2023-02-09T01:43:59.083Z,4.95
2023-02-09T01:46:28.584Z,4.80
2023-02-09T01:49:17.458Z,4.72
2023-02-09T01:52:04.742Z,4.70
2023-02-09T01:54:43.128Z,4.10
2023-02-09T01:57:20.581Z,4.50
2023-02-09T01:59:53.560Z,3.85
2023-02-09T02:02:22.189Z,4.65
2023-02-09T02:04:49.955Z,5.05
2023-02-09T02:07:28.051Z,4.82
2023-02-09T02:09:54.927Z,4.25
2023-02-09T02:12:23.360Z,4.30
2023-02-09T02:14:49.939Z,4.35
2023-02-09T02:17:34.591Z,4.05
2023-02-09T02:20:19.769Z,4.30
2023-02-09T02:23:20.469Z,4.47
2023-02-09T02:26:08.441Z,4.78
2023-02-09T02:28:45.468Z,4.40
2023-02-09T02:31:17.904Z,4.30
2023-02-09T02:34:15.003Z,4.32
2023-02-09T02:37:15.564Z,4.50
2023-02-09T02:40:38.150Z,4.20
2023-02-09T02:43:27.680Z,4.10
2023-02-09T02:46:10.995Z,4.53
2023-02-09T02:48:41.556Z,4.35
2023-02-09T02:51:14.676Z,4.30
2023-02-09T02:53:45.013Z,4.38
2023-02-09T02:56:25.750Z,4.30
2023-02-09T02:58:56.502Z,3.83
2023-02-09T03:01:27.596Z,4.25
2023-02-09T03:03:55.529Z,4.03
2023-02-09T03:06:22.078Z,3.85
2023-02-09T03:08:56.728Z,4.22
2023-02-09T03:11:27.767Z,4.18
2023-02-09T03:13:56.945Z,4.30
2023-02-09T03:17:02.971Z,3.75
2023-02-09T03:19:40.078Z,3.80
2023-02-09T03:22:17.667Z,3.90
2023-02-09T03:24:55.355Z,4.13
2023-02-09T03:27:29.318Z,4.10
2023-02-09T03:29:59.697Z,4.32
2023-02-09T03:32:27.278Z,3.90
2023-02-09T03:34:57.239Z,4.43
2023-02-09T03:37:24.422Z,4.18
2023-02-09T03:39:50.992Z,3.40
2023-02-09T03:42:17.524Z,3.67
2023-02-09T03:44:44.016Z,4.35
2023-02-09T03:47:10.566Z,4.28
2023-02-09T03:49:40.100Z,3.47
2023-02-09T03:52:09.432Z,4.18
2023-02-09T03:54:36.904Z,4.07
2023-02-09T03:57:04.689Z,3.60
2023-02-09T03:59:35.333Z,4.05
2023-02-09T04:02:02.185Z,4.60
2023-02-09T04:04:28.780Z,4.05
2023-02-09T04:06:56.198Z,3.97
2023-02-09T04:09:23.354Z,4.03
2023-02-09T04:11:49.893Z,4.20
2023-02-09T04:14:16.387Z,4.00
2023-02-09T04:16:43.184Z,4.07
2023-02-09T04:19:10.129Z,4.07
2023-02-09T04:21:38.590Z,4.45
2023-02-09T04:24:05.992Z,3.83
2023-02-09T04:26:33.031Z,4.32
2023-02-09T04:28:59.522Z,4.75
2023-02-09T04:31:26.159Z,3.72
2023-02-09T04:33:52.763Z,4.00
2023-02-09T04:36:19.284Z,4.13
2023-02-09T04:38:45.813Z,3.90
2023-02-09T04:41:12.360Z,4.25
2023-02-09T04:43:38.855Z,3.58
2023-02-09T04:46:05.405Z,3.97
2023-02-09T04:48:31.980Z,3.85
2023-02-09T04:50:58.552Z,4.20
2023-02-09T04:53:25.526Z,4.13
2023-02-09T04:55:52.550Z,3.92
2023-02-09T04:58:39.404Z,3.90
2023-02-09T05:01:07.149Z,3.67
2023-02-09T05:03:34.292Z,4.32
2023-02-09T05:06:03.495Z,3.90
2023-02-09T05:08:30.270Z,4.45
2023-02-09T05:10:57.118Z,3.53
2023-02-09T05:13:25.407Z,3.65
2023-02-09T05:15:52.192Z,3.92
2023-02-09T05:18:18.846Z,3.60
2023-02-09T05:20:46.146Z,3.67
2023-02-09T05:23:13.270Z,4.25
2023-02-09T05:25:40.298Z,3.53
2023-02-09T05:28:07.162Z,3.42
2023-02-09T05:30:34.151Z,4.05
2023-02-09T05:33:00.674Z,3.38
2023-02-09T05:35:27.213Z,3.67
2023-02-09T05:37:53.730Z,3.53
2023-02-09T05:40:20.273Z,3.70
2023-02-09T05:42:46.776Z,4.15
2023-02-09T05:45:13.387Z,3.63
2023-02-09T05:47:39.889Z,3.90
2023-02-09T05:50:06.549Z,3.63
2023-02-09T05:52:33.114Z,3.65
2023-02-09T05:54:59.608Z,4.00
2023-02-09T05:57:26.123Z,3.60
2023-02-09T05:59:52.982Z,3.88
2023-02-09T06:02:19.636Z,4.07
2023-02-09T06:04:46.215Z,3.88
2023-02-09T06:07:12.694Z,3.50
2023-02-09T06:09:39.193Z,3.85
2023-02-09T06:12:05.826Z,3.95
2023-02-09T06:14:32.298Z,3.60
2023-02-09T06:16:59.231Z,4.18
2023-02-09T06:19:25.739Z,3.92
2023-02-09T06:21:52.213Z,3.83
2023-02-09T06:24:18.777Z,4.20
2023-02-09T06:26:45.492Z,4.55
2023-02-09T06:29:12.019Z,3.83
2023-02-09T06:31:38.752Z,4.18
2023-02-09T06:34:05.837Z,3.70
2023-02-09T06:36:32.769Z,3.78
2023-02-09T06:38:59.294Z,4.07
2023-02-09T06:41:25.932Z,3.38
2023-02-09T06:43:52.415Z,3.50
2023-02-09T06:46:18.949Z,4.72
2023-02-09T06:48:45.516Z,4.10
2023-02-09T06:51:14.186Z,4.43
2023-02-09T06:53:42.958Z,4.13
2023-02-09T06:56:11.261Z,4.07
2023-02-09T06:58:39.985Z,4.43
2023-02-09T07:01:09.948Z,4.32
2023-02-09T07:03:37.522Z,3.97
2023-02-09T07:06:09.138Z,4.05
2023-02-09T07:08:36.689Z,3.85
2023-02-09T07:11:08.769Z,3.50
2023-02-09T07:13:35.712Z,3.70
2023-02-09T07:16:04.349Z,3.97
2023-02-09T07:18:30.956Z,3.95
2023-02-09T07:20:59.492Z,4.20
2023-02-09T07:23:26.678Z,4.10
2023-02-09T07:25:53.488Z,4.10
2023-02-09T07:28:20.753Z,4.40
2023-02-09T07:30:52.189Z,3.97
2023-02-09T07:33:19.600Z,3.85
2023-02-09T07:35:47.205Z,3.95
2023-02-09T07:38:14.106Z,3.90
2023-02-09T07:40:46.450Z,4.22
2023-02-09T07:43:13.956Z,4.18
2023-02-09T07:45:41.500Z,3.88
2023-02-09T07:48:10.239Z,4.40
2023-02-09T07:50:37.006Z,4.20
2023-02-09T07:53:03.591Z,4.90
2023-02-09T07:55:30.233Z,4.45
2023-02-09T07:57:57.010Z,4.40
2023-02-09T08:00:24.325Z,3.85
2023-02-09T08:02:51.079Z,4.18
2023-02-09T08:05:25.919Z,4.38
2023-02-09T08:07:52.908Z,4.80
2023-02-09T08:10:19.869Z,4.60
2023-02-09T08:13:02.575Z,4.60
2023-02-09T08:15:38.284Z,4.35
2023-02-09T08:18:12.826Z,3.90
2023-02-09T08:20:40.218Z,4.55
2023-02-09T08:23:14.367Z,3.88
2023-02-09T08:25:41.055Z,4.60
2023-02-09T08:28:08.837Z,4.03
2023-02-09T08:30:35.956Z,4.57
2023-02-09T08:33:02.472Z,4.55
2023-02-09T08:35:30.752Z,4.28
2023-02-09T08:38:02.196Z,3.85
2023-02-09T08:40:30.020Z,3.67
2023-02-09T08:42:56.628Z,4.88
2023-02-09T08:45:23.366Z,4.57
2023-02-09T08:47:50.124Z,4.00
2023-02-09T08:50:16.779Z,4.40
2023-02-09T08:52:43.404Z,4.07
2023-02-09T08:55:10.165Z,4.82
2023-02-09T08:57:44.011Z,4.28
2023-02-09T09:00:11.412Z,4.40
2023-02-09T09:02:37.919Z,4.72
2023-02-09T09:05:04.674Z,4.25
2023-02-09T09:07:31.319Z,5.07
2023-02-09T09:09:57.839Z,4.70
2023-02-09T09:12:24.580Z,4.10
2023-02-09T09:14:51.366Z,4.28
2023-02-09T09:17:17.908Z,4.40
2023-02-09T09:19:44.486Z,4.47
2023-02-09T09:22:11.047Z,4.32
2023-02-09T09:24:40.694Z,4.30
2023-02-09T09:27:10.402Z,4.22
2023-02-09T09:29:40.002Z,4.32
2023-02-09T09:32:07.766Z,4.13
2023-02-09T09:34:34.463Z,4.55
2023-02-09T09:37:00.964Z,4.18
2023-02-09T09:39:27.514Z,4.95
2023-02-09T09:41:59.348Z,4.45
2023-02-09T09:44:44.741Z,4.60
2023-02-09T09:47:17.394Z,4.38
2023-02-09T09:49:44.228Z,4.75
2023-02-09T09:52:18.295Z,3.92
2023-02-09T09:54:45.281Z,4.15
2023-02-09T09:57:27.264Z,4.78
2023-02-09T09:59:55.073Z,4.38
2023-02-09T10:02:28.712Z,4.45
2023-02-09T10:05:02.845Z,4.68
2023-02-09T10:07:32.640Z,4.05
2023-02-09T10:10:04.876Z,4.20
2023-02-09T10:12:38.298Z,3.97
2023-02-09T10:15:37.259Z,5.00
2023-02-09T10:18:13.040Z,4.32
2023-02-09T10:20:45.630Z,4.72
2023-02-09T10:23:21.130Z,4.28
2023-02-09T10:25:50.710Z,4.65
2023-02-09T10:28:25.677Z,4.72
2023-02-09T10:30:54.540Z,4.38
2023-02-09T10:33:21.199Z,4.10
2023-02-09T10:36:08.712Z,4.68
2023-02-09T10:38:39.922Z,4.00
2023-02-09T10:41:11.292Z,4.38
2023-02-09T10:43:37.850Z,4.85
2023-02-09T10:46:13.252Z,4.57
2023-02-09T10:48:45.639Z,4.40
2023-02-09T10:51:29.748Z,4.30
2023-02-09T10:54:00.143Z,4.32
2023-02-09T10:56:41.780Z,4.57
2023-02-09T10:59:23.313Z,4.63
2023-02-09T11:02:01.790Z,5.20
2023-02-09T11:04:39.858Z,4.38
2023-02-09T11:07:12.164Z,4.47
2023-02-09T11:09:50.339Z,4.22
2023-02-09T11:12:17.223Z,5.00
2023-02-09T11:14:44.036Z,5.10
2023-02-09T11:17:17.271Z,4.95
2023-02-09T11:20:25.906Z,4.80
2023-02-09T11:23:20.377Z,4.95
2023-02-09T11:26:04.002Z,4.72
2023-02-09T11:28:33.523Z,5.35
2023-02-09T11:31:24.342Z,5.05
2023-02-09T11:34:28.370Z,5.13
2023-02-09T11:37:06.976Z,4.93
2023-02-09T11:39:55.731Z,4.90
2023-02-09T11:42:45.539Z,4.10
2023-02-09T11:45:24.201Z,4.70
2023-02-09T11:48:09.250Z,4.25
2023-02-09T11:50:56.156Z,4.40
2023-02-09T11:53:33.416Z,4.70
2023-02-09T11:56:06.033Z,4.45
2023-02-09T11:59:08.698Z,4.72
2023-02-09T12:01:55.370Z,4.10
2023-02-09T12:04:31.239Z,4.55
2023-02-09T12:07:02.599Z,4.68
2023-02-09T12:10:10.989Z,4.32
2023-02-09T12:12:48.756Z,4.50
2023-02-09T12:15:22.809Z,4.63
2023-02-09T12:18:01.137Z,4.57
2023-02-09T12:20:36.686Z,5.00
2023-02-09T12:23:15.859Z,4.20
2023-02-09T12:25:51.671Z,4.72
2023-02-09T12:28:24.023Z,4.72
2023-02-09T12:30:51.017Z,4.38
2023-02-09T12:33:23.254Z,4.93
2023-02-09T12:36:03.594Z,4.47
2023-02-09T12:38:51.597Z,4.28
2023-02-09T12:41:29.267Z,4.78
2023-02-09T12:44:10.998Z,4.88
2023-02-09T12:46:43.238Z,5.00
2023-02-09T12:49:12.682Z,5.53
2023-02-09T12:51:54.876Z,4.97
2023-02-09T12:54:27.322Z,4.38
2023-02-09T12:56:54.696Z,4.43
2023-02-09T12:59:24.643Z,4.13
2023-02-09T13:02:06.141Z,4.95
2023-02-09T13:05:05.662Z,4.00
2023-02-09T13:08:00.402Z,4.97
2023-02-09T13:10:29.814Z,5.32
2023-02-09T13:13:12.551Z,4.50
2023-02-09T13:15:51.247Z,4.63
2023-02-09T13:18:37.954Z,5.05
2023-02-09T13:21:13.459Z,4.82
2023-02-09T13:23:56.927Z,4.93
2023-02-09T13:26:26.983Z,4.30
2023-02-09T13:29:21.606Z,4.93
2023-02-09T13:32:13.066Z,4.63
2023-02-09T13:35:04.440Z,4.93
2023-02-09T13:37:46.574Z,4.47
2023-02-09T13:40:34.771Z,4.15
2023-02-09T13:43:16.136Z,4.90
2023-02-09T13:45:54.965Z,4.15
2023-02-09T13:48:36.815Z,4.90
2023-02-09T13:51:23.659Z,5.00
2023-02-09T13:53:58.542Z,4.75
2023-02-09T13:56:25.657Z,4.68
2023-02-09T13:58:53.328Z,4.25
2023-02-09T14:01:29.902Z,5.13
2023-02-09T14:03:58.939Z,4.50
2023-02-09T14:06:44.601Z,4.78
2023-02-09T14:09:26.896Z,4.78
2023-02-09T14:12:05.371Z,4.10
2023-02-09T14:14:57.876Z,4.93
2023-02-09T14:17:32.521Z,4.95
2023-02-09T14:20:00.072Z,4.78
2023-02-09T14:22:37.956Z,5.55
2023-02-09T14:25:13.751Z,4.90
2023-02-09T14:27:45.566Z,5.25
2023-02-09T14:30:17.053Z,5.45
2023-02-09T14:32:48.367Z,5.00
2023-02-09T14:35:20.520Z,4.70
2023-02-09T14:37:48.513Z,4.78
2023-02-09T14:40:27.040Z,5.00
2023-02-09T14:43:01.673Z,5.13
2023-02-09T14:45:35.830Z,5.13
2023-02-09T14:48:02.400Z,4.90
2023-02-09T14:50:28.958Z,4.93
2023-02-09T14:53:06.707Z,4.47
2023-02-09T14:55:40.095Z,5.47
2023-02-09T14:58:28.952Z,4.88
2023-02-09T15:00:57.724Z,5.00
2023-02-09T15:03:24.400Z,5.13
2023-02-09T15:06:00.646Z,5.40
2023-02-09T15:08:30.148Z,4.63
2023-02-09T15:11:29.232Z,5.22
2023-02-09T15:14:03.838Z,4.78
2023-02-09T15:16:31.539Z,5.13
2023-02-09T15:18:58.219Z,4.55
2023-02-09T15:21:24.765Z,4.82
2023-02-09T15:23:51.293Z,5.60
2023-02-09T15:26:22.624Z,5.30
2023-02-09T15:28:49.170Z,5.32
2023-02-09T15:31:16.382Z,5.10
2023-02-09T15:33:43.025Z,4.60
2023-02-09T15:36:16.856Z,4.97
2023-02-09T15:41:29.043Z,4.20
2023-02-09T15:44:14.298Z,4.25
2023-02-09T15:46:59.605Z,4.63
2023-02-09T15:49:26.183Z,5.00
2023-02-09T15:51:52.799Z,4.85
2023-02-09T15:54:21.873Z,5.07
2023-02-09T15:56:48.385Z,5.25
2023-02-09T15:59:20.898Z,4.57
2023-02-09T16:01:47.848Z,4.75
2023-02-09T16:04:14.996Z,5.80
2023-02-09T16:06:53.318Z,5.00
2023-02-09T16:09:27.571Z,4.65
2023-02-09T16:11:54.372Z,4.88
2023-02-09T16:14:23.308Z,4.95
2023-02-09T16:16:50.118Z,4.30
2023-02-09T16:19:17.081Z,4.25
2023-02-09T16:21:50.657Z,4.53
2023-02-09T16:24:40.984Z,5.25
2023-02-09T16:27:27.841Z,5.28
2023-02-09T16:29:55.193Z,4.80
2023-02-09T16:32:23.677Z,4.60
2023-02-09T16:34:51.089Z,4.63
2023-02-09T16:37:23.673Z,4.30
2023-02-09T16:39:50.264Z,5.63
2023-02-09T16:42:16.953Z,4.95
2023-02-09T16:44:43.505Z,4.85
2023-02-09T16:47:20.421Z,3.90
2023-02-09T16:50:02.601Z,4.57
2023-02-09T16:52:30.362Z,4.47
2023-02-09T16:54:59.853Z,4.32
2023-02-09T16:57:27.990Z,4.00
2023-02-09T16:59:55.208Z,4.72
2023-02-09T17:02:28.036Z,4.90
2023-02-09T17:04:54.607Z,4.40
2023-02-09T17:07:24.401Z,4.13
2023-02-09T17:09:51.162Z,4.22
2023-02-09T17:12:17.627Z,4.10
2023-02-09T17:14:44.439Z,4.50
2023-02-09T17:17:18.075Z,4.00
2023-02-09T17:19:48.126Z,4.28
2023-02-09T17:22:15.410Z,3.83
2023-02-09T17:24:41.917Z,4.10
2023-02-09T17:27:09.703Z,4.10
2023-02-09T17:29:36.324Z,4.30
2023-02-09T17:32:03.464Z,3.97
2023-02-09T17:34:30.305Z,3.67
2023-02-09T17:36:58.002Z,4.40
2023-02-09T17:39:25.184Z,3.95
2023-02-09T17:41:52.056Z,4.40
2023-02-09T17:44:43.706Z,4.35
2023-02-09T17:47:17.060Z,4.30
2023-02-09T17:49:43.720Z,4.05
2023-02-09T17:52:18.030Z,4.10
2023-02-09T17:54:45.463Z,3.70
2023-02-09T17:57:14.230Z,4.20
2023-02-09T17:59:40.821Z,4.40
2023-02-09T18:02:25.872Z,4.25
2023-02-09T18:04:52.424Z,4.13
2023-02-09T18:07:20.838Z,3.95
2023-02-09T18:09:47.605Z,4.80
2023-02-09T18:12:20.425Z,4.53
2023-02-09T18:14:47.065Z,4.53
2023-02-09T18:17:13.777Z,4.22
2023-02-09T18:19:40.276Z,4.93
2023-02-09T18:22:06.788Z,4.55
2023-02-09T18:24:35.189Z,5.22
2023-02-09T18:27:02.248Z,5.25
2023-02-09T18:29:30.036Z,5.60
2023-02-09T18:31:59.026Z,5.45
2023-02-09T18:34:26.223Z,5.22
2023-02-09T18:36:52.741Z,6.20
2023-02-09T18:39:19.461Z,5.70
2023-02-09T18:41:48.338Z,6.00
2023-02-09T18:44:14.870Z,4.93
2023-02-09T18:46:43.205Z,5.55
2023-02-09T18:49:12.356Z,6.25
2023-02-09T18:51:38.895Z,5.95
2023-02-09T18:54:05.641Z,5.40
2023-02-09T18:56:32.291Z,5.53
2023-02-09T18:58:58.970Z,5.53
2023-02-09T19:01:25.540Z,5.95
2023-02-09T19:03:53.453Z,5.63
2023-02-09T19:06:21.347Z,5.68
2023-02-09T19:08:50.138Z,5.90
2023-02-09T19:11:19.284Z,5.38
2023-02-09T19:14:08.772Z,4.60
2023-02-09T19:16:36.657Z,5.50
2023-02-09T19:19:03.600Z,5.45
2023-02-09T19:21:31.764Z,5.32
2023-02-09T19:23:58.336Z,5.45
2023-02-09T19:26:24.827Z,6.05
2023-02-09T19:28:51.440Z,6.07
2023-02-09T19:31:18.611Z,6.03
2023-02-09T19:33:45.330Z,5.07
2023-02-09T19:36:12.339Z,5.53
2023-02-09T19:38:38.892Z,5.65
2023-02-09T19:41:11.787Z,6.05
2023-02-09T19:43:39.929Z,6.27
2023-02-09T19:46:07.558Z,6.50
2023-02-09T19:48:34.165Z,5.65
2023-02-09T19:51:00.856Z,5.80
2023-02-09T19:53:27.977Z,6.18
2023-02-09T19:55:54.805Z,6.45
2023-02-09T19:58:21.734Z,5.68
2023-02-09T20:00:49.773Z,6.32
2023-02-09T20:03:17.076Z,6.25
2023-02-09T20:05:44.744Z,6.28
2023-02-09T20:08:15.698Z,5.88
2023-02-09T20:10:44.265Z,5.93
2023-02-09T20:13:12.861Z,5.78
2023-02-09T20:15:44.106Z,6.25
2023-02-09T20:18:12.637Z,6.13
2023-02-09T20:20:41.724Z,5.88
2023-02-09T20:23:08.862Z,6.80
2023-02-09T20:25:35.445Z,7.20
2023-02-09T20:28:02.139Z,6.25
2023-02-09T20:30:28.732Z,6.25
2023-02-09T20:32:55.272Z,6.60
2023-02-09T20:35:21.818Z,7.00
2023-02-09T20:37:48.551Z,6.88
2023-02-09T20:40:15.328Z,6.30
2023-02-09T20:43:00.466Z,6.47
2023-02-09T20:45:45.760Z,6.45
2023-02-09T20:48:13.649Z,6.03
2023-02-09T20:50:40.238Z,6.18
2023-02-09T20:53:06.905Z,6.60
2023-02-09T20:55:33.476Z,6.53
2023-02-09T20:58:00.019Z,6.38
2023-02-09T21:00:26.775Z,6.28
2023-02-09T21:02:53.431Z,6.35
2023-02-09T21:05:20.087Z,6.55
2023-02-09T21:07:46.702Z,6.72
2023-02-09T21:10:13.265Z,6.88
2023-02-09T21:12:39.985Z,6.93
2023-02-09T21:15:06.961Z,6.97
2023-02-09T21:17:33.543Z,6.90
2023-02-09T21:20:00.190Z,7.70
2023-02-09T21:22:26.783Z,6.75
2023-02-09T21:24:53.395Z,6.75
2023-02-09T21:27:20.470Z,7.07
2023-02-09T21:29:47.101Z,7.32
2023-02-09T21:32:13.737Z,6.72
2023-02-09T21:34:40.233Z,6.88
2023-02-09T21:37:10.195Z,6.40
2023-02-09T21:39:36.799Z,6.75
2023-02-09T21:42:22.202Z,6.82
2023-02-09T21:44:48.813Z,6.25
2023-02-09T21:47:15.460Z,6.57
2023-02-09T21:49:41.944Z,7.30
2023-02-09T21:52:08.458Z,6.47
2023-02-09T21:54:34.955Z,6.70
2023-02-09T21:57:02.185Z,6.90
2023-02-09T21:59:29.380Z,6.40
2023-02-09T22:01:56.441Z,7.03
2023-02-09T22:04:23.090Z,6.97
2023-02-09T22:06:49.954Z,7.55
2023-02-09T22:09:16.552Z,6.25
2023-02-09T22:11:43.075Z,6.55
2023-02-09T22:14:09.587Z,6.47
2023-02-09T22:16:36.211Z,6.45
2023-02-09T22:19:03.322Z,6.22
2023-02-09T22:21:29.837Z,6.70
2023-02-09T22:23:56.401Z,6.32
2023-02-09T22:26:23.040Z,6.50
2023-02-09T22:28:49.755Z,6.18
2023-02-09T22:31:18.624Z,6.43
2023-02-09T22:33:45.457Z,6.90
2023-02-09T22:36:14.836Z,7.05
2023-02-09T22:38:41.394Z,6.43
2023-02-09T22:41:22.420Z,6.47
2023-02-09T22:43:59.213Z,6.40
2023-02-09T22:46:29.120Z,6.07
2023-02-09T22:48:57.793Z,5.95
2023-02-09T22:51:26.901Z,6.55
2023-02-09T22:53:53.663Z,6.10
2023-02-09T22:56:20.564Z,6.13
2023-02-09T22:58:47.380Z,6.15
2023-02-09T23:01:14.017Z,5.70
2023-02-09T23:03:41.074Z,6.00
2023-02-09T23:06:10.816Z,6.13
2023-02-09T23:08:37.370Z,5.15
2023-02-09T23:11:06.713Z,5.38
2023-02-09T23:13:34.833Z,5.75
2023-02-09T23:16:19.567Z,5.22
2023-02-09T23:18:51.838Z,5.68
2023-02-09T23:21:20.222Z,5.68
2023-02-09T23:23:46.779Z,5.63
2023-02-09T23:26:14.792Z,5.82
2023-02-09T23:28:41.491Z,5.45
2023-02-09T23:31:13.373Z,5.38
2023-02-09T23:33:40.244Z,5.40
2023-02-09T23:36:10.081Z,6.28
2023-02-09T23:38:37.022Z,5.20
2023-02-09T23:41:08.524Z,5.10
2023-02-09T23:43:36.020Z,5.28
2023-02-09T23:46:08.884Z,5.43
2023-02-09T23:48:35.523Z,5.33
2023-02-09T23:51:11.281Z,5.40
2023-02-09T23:53:37.773Z,5.10
2023-02-09T23:56:04.692Z,5.35
2023-02-09T23:58:36.709Z,5.22
